Time;durP1;ratioP1;P1;durP2;ratioP2;P2;SDS_P1;SDS_P2;PMS_P1;PMS_P2;Temp;Humidity;BMP_temperature;BMP_pressure;BME280_temperature;BME280_humidity;BME280_pressure;Samples;Min_cycle;Max_cycle;Signal;HPM_P1;HPM_P2
2022/12/21 00:01:27;;;;;;;0.50;0.50;;;;;;;1.36;52.71;96143.03;4951248;29;20962;-61
2022/12/21 00:03:56;;;;;;;1.27;1.17;;;;;;;1.43;51.71;96137.03;4951000;29;20203;-60
2022/12/21 00:06:25;;;;;;;0.95;0.95;;;;;;;1.44;52.24;96135.25;4950854;29;20266;-60
2022/12/21 00:08:55;;;;;;;1.13;1.02;;;;;;;1.55;52.05;96132.28;4950974;29;20199;-59
2022/12/21 00:11:24;;;;;;;0.95;0.95;;;;;;;1.60;51.89;96130.81;4951401;29;20210;-61
2022/12/21 00:13:52;;;;;;;0.75;0.73;;;;;;;1.63;51.76;96132.22;4950830;29;20626;-61
2022/12/21 00:16:22;;;;;;;1.42;1.33;;;;;;;1.61;51.89;96126.44;4950920;29;20196;-59
2022/12/21 00:18:49;;;;;;;1.90;1.80;;;;;;;1.64;51.66;96132.06;4950877;29;20683;-60
2022/12/21 00:21:22;;;;;;;2.10;1.75;;;;;;;1.47;52.38;96120.22;4951209;29;20655;-57
2022/12/21 00:23:51;;;;;;;3.92;2.50;;;;;;;1.53;52.20;96129.06;4950592;29;20751;-60
2022/12/21 00:26:22;;;;;;;4.10;3.05;;;;;;;1.57;52.17;96117.44;4951393;29;20208;-60
2022/12/21 00:28:53;;;;;;;5.97;4.13;;;;;;;0.75;54.83;96134.19;4938566;29;20727;-60
2022/12/21 00:31:24;;;;;;;1.50;1.40;;;;;;;0.88;54.26;96113.03;4950947;29;20624;-60
2022/12/21 00:33:52;;;;;;;1.15;1.13;;;;;;;1.13;53.47;96124.09;4933099;29;20207;-61
2022/12/21 00:36:22;;;;;;;4.00;3.70;;;;;;;1.01;54.04;96124.44;4950799;29;20815;-60
2022/12/21 00:38:49;;;;;;;0.08;0.08;;;;;;;0.03;56.45;96131.69;4950456;29;20219;-61
2022/12/21 00:41:20;;;;;;;2.03;1.90;;;;;;;0.32;55.55;96131.19;4933705;29;20679;-59
2022/12/21 00:43:48;;;;;;;0.35;0.35;;;;;;;0.69;54.73;96124.50;4933308;29;20548;-61
2022/12/21 00:46:21;;;;;;;3.30;2.75;;;;;;;0.49;54.71;96107.00;4950160;29;20212;-60
2022/12/21 00:48:48;;;;;;;0.68;0.68;;;;;;;0.93;54.16;96121.88;4933516;29;20214;-60
2022/12/21 00:51:18;;;;;;;0.40;0.40;;;;;;;1.23;53.24;96115.16;4950871;29;20200;-60
2022/12/21 00:53:46;;;;;;;2.50;2.30;;;;;;;0.81;53.99;96118.06;4950666;29;20203;-61
2022/12/21 00:56:14;;;;;;;1.50;1.40;;;;;;;0.50;54.92;96103.44;4950307;29;20811;-60
2022/12/21 00:58:41;;;;;;;0.95;0.95;;;;;;;0.89;53.78;96099.97;4950625;29;20290;-58
2022/12/21 01:01:15;;;;;;;2.88;1.08;;;;;;;1.13;53.45;96106.03;4933177;29;20273;-60
2022/12/21 01:03:42;;;;;;;0.13;0.08;;;;;;;1.20;53.25;96101.78;4950356;29;20210;-60
2022/12/21 01:06:18;;;;;;;20.17;5.40;;;;;;;1.33;52.64;96097.69;4932666;29;20238;-60
2022/12/21 01:08:45;;;;;;;1.95;1.80;;;;;;;1.40;52.25;96092.66;4950235;29;20195;-60
2022/12/21 01:11:14;;;;;;;0.10;0.10;;;;;;;1.37;52.52;96088.63;4933437;29;20228;-60
2022/12/21 01:13:43;;;;;;;3.95;3.65;;;;;;;1.37;52.64;96090.41;4933280;29;20260;-60
2022/12/21 01:16:15;;;;;;;12.48;2.17;;;;;;;1.30;52.76;96086.88;4950741;29;20264;-61
2022/12/21 01:18:43;;;;;;;2.00;1.90;;;;;;;1.35;52.63;96092.38;4933559;29;20231;-60
2022/12/21 01:21:29;;;;;;;3.22;1.17;;;;;;;1.25;52.94;96090.00;4950175;29;20262;-61
2022/12/21 01:23:58;;;;;;;1.85;1.75;;;;;;;0.82;53.81;96093.84;4949639;29;20300;-63
2022/12/21 01:26:26;;;;;;;0.90;0.90;;;;;;;0.65;54.15;96100.06;4950655;29;20373;-63
2022/12/21 01:28:53;;;;;;;0.30;0.28;;;;;;;1.06;53.47;96089.59;4950789;29;20196;-62
2022/12/21 01:31:20;;;;;;;3.03;2.75;;;;;;;1.25;52.85;96078.84;4950443;29;20613;-61
2022/12/21 01:33:47;;;;;;;0.40;0.40;;;;;;;1.23;52.81;96081.59;4950177;29;20219;-60
2022/12/21 01:36:16;;;;;;;0.10;0.10;;;;;;;1.25;52.32;96086.59;4950315;29;20601;-62
2022/12/21 01:38:45;;;;;;;1.10;0.90;;;;;;;1.21;52.47;96082.72;4933066;29;20650;-63
2022/12/21 01:41:16;;;;;;;2.05;1.95;;;;;;;1.16;52.51;96085.03;4950321;29;20232;-61
2022/12/21 01:43:45;;;;;;;0.55;0.55;;;;;;;1.04;53.10;96072.47;4950326;29;20196;-60
2022/12/21 01:46:41;;;;;;;2.85;0.80;;;;;;;0.94;52.69;96071.91;4950713;28;20767;-62
2022/12/21 01:49:22;;;;;;;2.53;2.33;;;;;;;1.11;52.89;96072.63;4936733;29;20275;-60
2022/12/21 01:52:05;;;;;;;0.13;0.10;;;;;;;0.60;53.79;96071.34;4953602;29;20674;-64
2022/12/21 01:54:49;;;;;;;0.40;0.40;;;;;;;0.55;54.00;96063.31;4953474;29;20286;-62
2022/12/21 01:57:25;;;;;;;1.25;1.25;;;;;;;0.30;54.79;96045.47;4953436;29;20640;-60
2022/12/21 01:59:59;;;;;;;1.80;0.82;;;;;;;0.20;55.47;96055.97;4935720;29;20224;-64
2022/12/21 02:02:37;;;;;;;1.73;1.63;;;;;;;0.52;54.88;96060.25;4953034;29;20210;-61
2022/12/21 02:05:32;;;;;;;0.98;0.95;;;;;;;0.54;54.53;96055.75;4953720;29;20655;-61
2022/12/21 02:08:03;;;;;;;1.00;0.90;;;;;;;0.70;54.25;96053.09;4941749;29;20643;-61
2022/12/21 02:10:31;;;;;;;3.38;3.10;;;;;;;0.49;54.31;96043.38;4935724;29;20695;-61
2022/12/21 02:13:05;;;;;;;0.77;0.77;;;;;;;0.52;54.41;96052.53;4951884;29;20259;-61
2022/12/21 02:16:00;;;;;;;2.35;2.15;;;;;;;0.70;54.35;96053.09;4952879;29;20659;-60
2022/12/21 02:18:45;;;;;;;0.43;0.43;;;;;;;0.56;54.31;96046.88;4952531;29;20218;-60
2022/12/21 02:21:12;;;;;;;0.50;0.50;;;;;;;0.70;53.83;96047.94;4952865;29;20699;-60
2022/12/21 02:24:13;;;;;;;0.03;0.03;;;;;;;0.84;53.89;96035.16;4935184;29;20208;-60
2022/12/21 02:26:50;;;;;;;7.63;5.38;;;;;;;0.56;53.95;96041.72;4952616;29;20200;-61
2022/12/21 02:29:38;;;;;;;0.57;0.57;;;;;;;0.64;54.38;96038.31;4952841;29;20274;-63
2022/12/21 02:32:11;;;;;;;0.43;0.43;;;;;;;0.54;54.56;96037.69;4953029;29;20199;-60
2022/12/21 02:34:56;;;;;;;0.00;0.00;;;;;;;0.59;54.17;96040.56;4953048;29;20278;-60
2022/12/21 02:37:34;;;;;;;1.55;1.45;;;;;;;0.45;54.62;96044.66;4935497;29;20203;-60
2022/12/21 02:40:18;;;;;;;1.65;1.55;;;;;;;0.17;56.41;96045.97;4935355;29;20232;-60
2022/12/21 02:46:24;;;;;;;0.20;0.20;;;;;;;0.60;55.00;96042.97;4943689;29;20211;-59
2022/12/21 02:49:02;;;;;;;0.47;0.40;;;;;;;0.75;54.61;96050.81;4952614;29;20208;-59
2022/12/21 02:51:44;;;;;;;1.58;1.48;;;;;;;0.77;54.39;96041.97;4952521;29;20678;-62
2022/12/21 02:54:13;;;;;;;18.42;3.30;;;;;;;0.63;54.31;96040.09;4934869;29;20200;-62
2022/12/21 02:56:41;;;;;;;0.63;0.63;;;;;;;0.57;54.67;96038.16;4952508;28;20686;-59
2022/12/21 02:59:13;;;;;;;8.02;2.00;;;;;;;0.56;54.31;96030.59;4934882;29;20259;-62
2022/12/21 03:01:53;;;;;;;0.68;0.68;;;;;;;0.72;54.10;96031.34;4935188;29;20258;-61
2022/12/21 03:04:31;;;;;;;1.95;1.55;;;;;;;0.45;54.42;96031.75;4934474;29;20204;-61
2022/12/21 03:07:43;;;;;;;0.80;0.52;;;;;;;0.63;54.47;96027.19;4934758;29;20211;-60
2022/12/21 03:10:14;;;;;;;1.13;1.00;;;;;;;0.46;55.28;96030.78;4855147;29;20208;-60
2022/12/21 03:12:57;;;;;;;1.00;1.00;;;;;;;0.52;54.92;96035.28;4933624;29;20208;-61
2022/12/21 03:15:59;;;;;;;1.23;1.10;;;;;;;0.48;54.79;96018.53;4954931;28;20649;-60
2022/12/21 03:18:35;;;;;;;0.10;0.10;;;;;;;0.60;54.11;96022.34;4906732;28;20246;-60
2022/12/21 03:21:31;;;;;;;2.72;1.80;;;;;;;0.67;54.13;96015.56;4934560;29;20223;-58
2022/12/21 03:24:24;;;;;;;2.40;1.65;;;;;;;0.54;54.34;96017.88;4951159;29;20203;-60
2022/12/21 03:27:05;;;;;;;0.95;0.95;;;;;;;0.73;54.20;96007.16;4947375;29;20212;-61
2022/12/21 03:29:40;;;;;;;0.20;0.20;;;;;;;0.91;53.49;96005.13;4951383;29;20258;-61
2022/12/21 03:32:13;;;;;;;0.70;0.70;;;;;;;0.81;53.92;96003.72;4939518;29;20208;-60
2022/12/21 03:34:45;;;;;;;0.15;0.15;;;;;;;0.60;53.47;95996.56;4951727;29;20272;-61
2022/12/21 03:37:18;;;;;;;3.00;2.80;;;;;;;0.64;54.09;95995.25;4951020;29;20200;-61
2022/12/21 03:39:51;;;;;;;0.40;0.40;;;;;;;0.58;54.17;95987.41;4951160;29;20263;-61
2022/12/21 03:42:31;;;;;;;0.55;0.38;;;;;;;0.49;54.29;95994.38;4951583;29;20634;-61
2022/12/21 03:45:13;;;;;;;1.92;1.60;;;;;;;0.52;54.26;95991.44;4951123;28;20235;-61
2022/12/21 03:47:47;;;;;;;0.15;0.15;;;;;;;0.44;54.38;95986.31;4951440;29;20360;-60
2022/12/21 03:50:19;;;;;;;2.85;2.55;;;;;;;0.54;54.35;95983.53;4940079;29;20211;-61
2022/12/21 03:52:51;;;;;;;0.80;0.80;;;;;;;0.65;54.21;95973.66;4951903;29;20204;-60
2022/12/21 03:55:27;;;;;;;0.20;0.20;;;;;;;0.55;54.33;95973.06;4951661;29;20232;-60
2022/12/21 03:57:55;;;;;;;3.15;2.10;;;;;;;0.73;54.03;95965.88;4952125;29;20202;-61
2022/12/21 04:00:23;;;;;;;2.58;1.17;;;;;;;0.87;53.58;95967.75;4952455;29;20247;-60
2022/12/21 04:03:02;;;;;;;2.70;1.20;;;;;;;0.96;53.58;95969.31;4951694;29;20234;-58
2022/12/21 04:05:32;;;;;;;5.28;1.40;;;;;;;0.90;53.27;95967.41;4952301;29;20211;-62
2022/12/21 04:08:01;;;;;;;0.68;0.68;;;;;;;0.71;53.92;95951.56;4952703;29;20266;-61
2022/12/21 04:10:28;;;;;;;0.22;0.22;;;;;;;0.66;53.60;95954.63;4951720;28;20641;-60
2022/12/21 04:12:54;;;;;;;4.45;3.13;;;;;;;0.56;53.87;95959.19;4952155;29;20735;-60
2022/12/21 04:15:25;;;;;;;4.85;4.43;;;;;;;0.52;53.92;95962.28;4951303;29;20239;-61
2022/12/21 04:17:52;;;;;;;4.70;2.63;;;;;;;0.71;53.85;95962.66;4960598;28;20314;-56
2022/12/21 04:20:22;;;;;;;1.35;1.08;;;;;;;0.72;53.71;95953.97;4953920;28;20435;-60
2022/12/21 04:28:24;;;;;;;1.80;1.70;;;;;;;0.35;54.39;95955.56;4951046;29;20204;-59
2022/12/21 04:31:11;;;;;;;0.68;0.63;;;;;;;0.58;54.10;95946.13;4950938;29;20220;-59
2022/12/21 04:33:38;;;;;;;0.80;0.80;;;;;;;0.52;53.86;95952.75;4950936;29;20196;-60
2022/12/21 04:38:51;;;;;;;1.30;1.25;;;;;;;0.55;53.67;95947.25;4951121;29;20204;-60
2022/12/21 04:41:17;;;;;;;3.05;2.85;;;;;;;0.64;53.62;95938.50;4950913;29;20278;-61
2022/12/21 04:43:44;;;;;;;1.75;1.65;;;;;;;0.56;54.13;95938.56;4950849;29;20208;-61
2022/12/21 04:46:14;;;;;;;1.92;1.77;;;;;;;0.54;54.06;95935.34;4950272;29;20751;-62
2022/12/21 04:48:43;;;;;;;1.92;1.80;;;;;;;0.37;54.79;95944.13;4933892;29;20328;-58
2022/12/21 04:51:15;;;;;;;2.63;2.42;;;;;;;0.30;55.03;95940.59;4950534;29;20675;-60
2022/12/21 04:53:43;;;;;;;0.43;0.43;;;;;;;0.47;54.41;95943.94;4950635;29;20578;-61
2022/12/21 04:56:10;;;;;;;1.95;1.35;;;;;;;0.28;54.77;95945.13;4950910;29;20188;-60
2022/12/21 04:58:38;;;;;;;1.02;1.02;;;;;;;0.40;54.35;95932.69;4950807;29;20215;-60
2022/12/21 05:01:14;;;;;;;0.77;0.77;;;;;;;0.52;54.13;95941.63;4950210;29;20215;-60
2022/12/21 05:03:42;;;;;;;1.10;1.10;;;;;;;0.55;54.02;95942.09;4950827;28;20521;-60
2022/12/21 05:06:10;;;;;;;0.35;0.35;;;;;;;0.56;53.68;95942.91;4950684;29;20315;-58
2022/12/21 05:08:38;;;;;;;0.38;0.38;;;;;;;0.49;53.93;95937.63;4950325;28;20204;-60
2022/12/21 05:11:12;;;;;;;7.00;4.43;;;;;;;0.61;54.11;95936.28;4950431;29;20738;-61
2022/12/21 05:13:41;;;;;;;0.63;0.60;;;;;;;0.50;54.10;95941.81;4939380;28;20203;-60
2022/12/21 05:16:11;;;;;;;0.00;0.00;;;;;;;0.54;54.03;95942.28;4950021;29;20287;-62
2022/12/21 05:18:38;;;;;;;4.53;3.70;;;;;;;0.52;53.96;95945.03;4950925;29;20686;-59
2022/12/21 05:21:05;;;;;;;0.30;0.30;;;;;;;0.52;54.41;95941.63;4952622;28;20239;-63
2022/12/21 05:23:32;;;;;;;0.75;0.75;;;;;;;0.43;54.54;95943.47;4954631;29;20196;-59
2022/12/21 05:26:01;;;;;;;4.53;3.05;;;;;;;-0.09;56.74;95937.16;4955240;29;20730;-60
2022/12/21 05:28:40;;;;;;;1.25;1.15;;;;;;;0.25;55.95;95942.06;4937324;29;20646;-59
2022/12/21 05:31:07;;;;;;;3.50;2.42;;;;;;;0.49;55.16;95937.63;4954649;29;20894;-60
2022/12/21 05:33:34;;;;;;;0.90;0.90;;;;;;;0.52;54.74;95939.88;4942866;29;20880;-61
2022/12/21 05:36:03;;;;;;;2.10;1.95;;;;;;;0.57;54.63;95932.44;4938063;29;20656;-63
2022/12/21 05:38:30;;;;;;;0.28;0.28;;;;;;;0.62;54.94;95943.03;4940751;29;20204;-61
2022/12/21 05:40:57;;;;;;;6.53;3.70;;;;;;;0.64;54.43;95930.78;4937323;29;20225;-58
2022/12/21 05:43:24;;;;;;;6.75;1.83;;;;;;;0.71;54.08;95936.09;4941842;29;20200;-59
2022/12/21 05:45:52;;;;;;;2.38;2.17;;;;;;;0.64;54.52;95935.94;4940006;29;20228;-60
2022/12/21 05:48:20;;;;;;;4.35;2.80;;;;;;;0.55;54.83;95934.38;4934496;29;20609;-60
2022/12/21 05:50:46;;;;;;;2.35;0.82;;;;;;;0.79;54.27;95929.09;4937533;29;20644;-61
2022/12/21 05:53:13;;;;;;;0.63;0.63;;;;;;;0.71;54.72;95928.34;4943864;29;20270;-60
2022/12/21 05:55:44;;;;;;;1.52;1.40;;;;;;;0.67;56.80;95937.38;4937690;29;20193;-60
2022/12/21 05:58:12;;;;;;;2.45;0.50;;;;;;;0.59;56.12;95933.06;4943533;29;20200;-57
2022/12/21 06:00:39;;;;;;;1.42;1.33;;;;;;;0.76;54.90;95939.75;4953104;29;20239;-60
2022/12/21 06:03:06;;;;;;;3.50;3.28;;;;;;;0.47;55.35;95942.16;4953106;29;20231;-60
2022/12/21 06:05:34;;;;;;;11.75;2.72;;;;;;;0.45;55.98;95938.94;4952010;29;20200;-60
2022/12/21 06:08:01;;;;;;;2.03;1.92;;;;;;;0.44;55.74;95929.59;4952151;29;20263;-61
2022/12/21 06:10:28;;;;;;;10.63;6.57;;;;;;;0.74;54.55;95941.69;4951977;29;20208;-60
2022/12/21 06:12:55;;;;;;;3.15;2.95;;;;;;;0.55;55.07;95942.09;4952491;29;20215;-61
2022/12/21 06:15:22;;;;;;;7.00;5.90;;;;;;;0.54;55.01;95939.69;4952063;29;20204;-60
2022/12/21 06:17:49;;;;;;;6.90;3.60;;;;;;;0.47;55.25;95936.19;4934874;29;20211;-61
2022/12/21 06:20:16;;;;;;;0.57;0.57;;;;;;;0.53;55.16;95933.72;4935504;29;20210;-61
2022/12/21 06:22:43;;;;;;;2.05;1.88;;;;;;;0.33;55.65;95927.38;4953269;29;20650;-60
2022/12/21 06:25:10;;;;;;;2.67;2.08;;;;;;;0.47;55.41;95929.25;4953371;29;20215;-59
2022/12/21 06:27:37;;;;;;;3.38;2.80;;;;;;;0.45;55.31;95931.22;4952753;29;20242;-59
2022/12/21 06:30:04;;;;;;;2.13;2.03;;;;;;;0.61;55.13;95923.38;4952537;29;20307;-63
2022/12/21 06:32:31;;;;;;;5.97;3.88;;;;;;;0.62;55.38;95917.25;4951806;28;20199;-62
2022/12/21 06:34:58;;;;;;;9.10;5.57;;;;;;;0.96;54.75;95920.28;4953381;29;20604;-61
2022/12/21 06:37:25;;;;;;;20.80;8.45;;;;;;;0.97;54.60;95919.31;4951122;29;20274;-61
2022/12/21 06:39:51;;;;;;;5.63;4.90;;;;;;;1.06;54.68;95924.41;4952173;29;20192;-61
2022/12/21 06:42:18;;;;;;;1.45;0.98;;;;;;;1.09;54.45;95926.66;4949299;29;20279;-62
2022/12/21 06:44:45;;;;;;;3.85;1.90;;;;;;;1.18;54.72;95917.88;4932487;29;20264;-61
2022/12/21 06:47:12;;;;;;;5.60;5.10;;;;;;;1.42;54.20;95921.09;4951093;29;20287;-61
2022/12/21 06:49:39;;;;;;;2.85;2.38;;;;;;;1.49;54.06;95923.75;4951150;29;20215;-62
2022/12/21 06:52:06;;;;;;;5.00;3.35;;;;;;;1.60;53.24;95929.31;4951601;29;20598;-60
2022/12/21 06:54:32;;;;;;;6.70;4.35;;;;;;;1.54;53.69;95929.19;4952779;29;20226;-60
2022/12/21 06:56:59;;;;;;;0.98;0.95;;;;;;;1.40;54.50;95932.56;4952498;29;20192;-61
2022/12/21 06:59:26;;;;;;;1.25;1.15;;;;;;;1.39;53.89;95930.94;4952536;29;20199;-62
2022/12/21 07:01:53;;;;;;;1.98;1.85;;;;;;;1.33;54.53;95932.44;4952681;29;20331;-61
2022/12/21 07:04:20;;;;;;;0.98;0.98;;;;;;;1.55;54.39;95941.16;4952647;29;20220;-62
2022/12/21 07:06:48;;;;;;;2.45;2.20;;;;;;;1.56;53.97;95935.00;4952614;29;20572;-63
2022/12/21 07:09:15;;;;;;;6.03;3.78;;;;;;;1.58;54.42;95935.63;4953168;29;20192;-60
2022/12/21 07:11:42;;;;;;;3.05;2.83;;;;;;;1.68;54.80;95946.53;4951743;29;20235;-60
2022/12/21 07:14:09;;;;;;;2.22;2.03;;;;;;;1.94;54.15;95947.72;4952413;29;20196;-62
2022/12/21 07:16:36;;;;;;;0.35;0.35;;;;;;;2.05;53.43;95944.72;4952049;29;20303;-62
2022/12/21 07:19:03;;;;;;;2.13;1.98;;;;;;;2.08;53.76;95942.75;4951798;29;20215;-63
2022/12/21 07:21:30;;;;;;;1.48;1.38;;;;;;;1.80;54.22;95951.09;4951602;29;20223;-62
2022/12/21 07:23:57;;;;;;;1.98;1.80;;;;;;;2.05;54.44;95944.72;4950872;29;20196;-62
2022/12/21 07:26:25;;;;;;;2.47;1.55;;;;;;;2.05;54.19;95949.88;4951747;29;20585;-62
2022/12/21 07:28:54;;;;;;;2.00;1.90;;;;;;;2.28;53.67;95943.81;4951896;29;20619;-62
2022/12/21 07:31:24;;;;;;;0.98;0.95;;;;;;;2.39;52.74;95941.56;4951844;29;20200;-61
2022/12/21 07:33:52;;;;;;;7.40;3.22;;;;;;;2.43;52.70;95932.47;4951642;29;20943;-62
2022/12/21 07:36:19;;;;;;;0.70;0.70;;;;;;;2.32;52.93;95935.50;4934207;29;20244;-61
2022/12/21 07:38:47;;;;;;;0.43;0.40;;;;;;;2.43;55.47;95932.47;4951792;29;20200;-63
2022/12/21 07:41:15;;;;;;;3.83;2.47;;;;;;;2.28;54.13;95929.09;4952227;29;20336;-62
2022/12/21 07:43:43;;;;;;;1.13;1.05;;;;;;;2.43;53.57;95935.06;4950822;28;20294;-62
2022/12/21 07:46:22;;;;;;;1.25;1.15;;;;;;;2.46;53.03;95914.03;4921890;29;20305;-63
2022/12/21 07:48:52;;;;;;;0.20;0.20;;;;;;;2.50;53.28;95917.06;4934175;29;20689;-61
2022/12/21 07:51:19;;;;;;;2.97;1.90;;;;;;;2.50;53.33;95923.00;4951466;29;20204;-63
2022/12/21 07:53:46;;;;;;;1.58;1.50;;;;;;;2.88;52.75;95916.69;4952058;29;20219;-62
2022/12/21 07:56:14;;;;;;;4.45;2.92;;;;;;;2.88;52.47;95921.88;4951341;28;20199;-61
2022/12/21 07:58:41;;;;;;;0.73;0.73;;;;;;;2.98;51.66;95916.41;4951592;29;20204;-62
2022/12/21 08:01:10;;;;;;;0.10;0.10;;;;;;;2.84;51.63;95919.84;4951340;29;20733;-62
2022/12/21 08:03:39;;;;;;;6.63;2.38;;;;;;;2.92;51.56;95928.28;4951828;29;20702;-62
2022/12/21 08:06:08;;;;;;;2.17;1.63;;;;;;;2.46;52.62;95921.78;4951367;29;20222;-64
2022/12/21 08:08:35;;;;;;;2.00;1.15;;;;;;;3.08;52.11;95922.09;4951347;29;20344;-61
2022/12/21 08:11:02;;;;;;;3.65;2.78;;;;;;;3.29;51.54;95926.47;4951719;29;20187;-62
2022/12/21 08:13:30;;;;;;;5.95;1.10;;;;;;;3.26;51.19;95916.47;4951167;29;20206;-61
2022/12/21 08:16:00;;;;;;;3.05;2.80;;;;;;;3.80;50.13;95922.72;4951163;29;20200;-63
2022/12/21 08:18:28;;;;;;;1.42;0.77;;;;;;;4.02;49.69;95912.09;4952536;28;20699;-62
2022/12/21 08:20:56;;;;;;;1.92;1.83;;;;;;;4.09;49.48;95906.94;4961772;28;20801;-63
2022/12/21 08:23:23;;;;;;;2.28;2.08;;;;;;;4.10;49.44;95901.59;4951120;29;20290;-61
2022/12/21 08:25:50;;;;;;;0.93;0.88;;;;;;;4.52;48.59;95892.00;4951359;29;20203;-61
2022/12/21 08:28:18;;;;;;;0.65;0.65;;;;;;;4.43;49.14;95888.78;4950793;29;20210;-63
2022/12/21 08:30:44;;;;;;;2.30;2.10;;;;;;;4.55;49.02;95887.22;4951194;29;20640;-61
2022/12/21 08:33:11;;;;;;;2.75;2.00;;;;;;;4.71;48.61;95886.06;4950812;29;20851;-61
2022/12/21 08:35:41;;;;;;;0.52;0.52;;;;;;;4.94;48.72;95881.38;4951488;29;20656;-61
2022/12/21 08:38:08;;;;;;;0.20;0.20;;;;;;;4.94;48.11;95876.97;4950984;29;20212;-61
2022/12/21 08:40:40;;;;;;;4.40;1.65;;;;;;;5.12;47.03;95869.41;4951171;29;20889;-61
2022/12/21 08:43:07;;;;;;;3.03;2.40;;;;;;;5.61;46.29;95853.44;4949342;29;20219;-61
2022/12/21 08:45:33;;;;;;;0.40;0.40;;;;;;;5.75;44.66;95854.22;4940104;29;20661;-61
2022/12/21 08:48:00;;;;;;;1.23;1.15;;;;;;;5.66;44.32;95845.84;4950609;29;20199;-63
2022/12/21 08:50:27;;;;;;;2.22;2.08;;;;;;;6.51;44.38;95845.66;4950673;29;20250;-61
2022/12/21 08:52:54;;;;;;;0.32;0.32;;;;;;;6.65;47.04;95844.59;4950379;29;20196;-61
2022/12/21 08:55:22;;;;;;;0.20;0.20;;;;;;;6.61;45.45;95840.78;4951780;28;20226;-62
2022/12/21 08:57:49;;;;;;;0.40;0.40;;;;;;;6.51;44.86;95840.44;4954304;29;20196;-62
2022/12/21 09:00:16;;;;;;;0.60;0.60;;;;;;;6.60;45.56;95849.63;4954264;29;20310;-60
2022/12/21 09:02:43;;;;;;;0.10;0.10;;;;;;;6.58;43.90;95843.00;4954130;29;20223;-62
2022/12/21 09:05:10;;;;;;;1.65;1.13;;;;;;;6.43;45.11;95821.66;4954791;29;20663;-62
2022/12/21 09:07:37;;;;;;;0.77;0.75;;;;;;;6.57;43.79;95829.19;4954593;29;20200;-62
2022/12/21 09:10:04;;;;;;;1.23;1.13;;;;;;;6.95;42.63;95811.75;4954727;29;20624;-61
2022/12/21 09:12:31;;;;;;;1.40;1.30;;;;;;;7.02;42.93;95822.94;4954798;29;20939;-62
2022/12/21 09:14:57;;;;;;;2.97;2.17;;;;;;;7.10;42.94;95820.06;4954310;29;20682;-63
2022/12/21 09:17:24;;;;;;;0.30;0.30;;;;;;;6.85;43.08;95806.22;4954427;29;20212;-62
2022/12/21 09:19:55;;;;;;;1.05;1.00;;;;;;;7.27;43.25;95814.34;4954555;29;20199;-62
2022/12/21 09:22:23;;;;;;;1.10;1.10;;;;;;;7.31;42.49;95800.69;4941714;29;20223;-62
2022/12/21 09:24:50;;;;;;;2.10;1.17;;;;;;;7.02;41.87;95799.50;4954581;29;20195;-61
2022/12/21 09:27:17;;;;;;;0.70;0.70;;;;;;;7.55;41.49;95791.25;4941594;29;20230;-61
2022/12/21 09:29:44;;;;;;;0.50;0.50;;;;;;;7.89;41.14;95769.81;4954121;29;20542;-61
2022/12/21 09:32:12;;;;;;;0.28;0.28;;;;;;;8.31;40.87;95771.59;4954232;29;20232;-63
2022/12/21 09:34:39;;;;;;;0.32;0.32;;;;;;;8.14;41.20;95768.75;4953959;29;20200;-62
2022/12/21 09:37:06;;;;;;;0.93;0.93;;;;;;;7.67;42.33;95763.44;4953876;29;20203;-63
2022/12/21 09:39:50;;;;;;;1.65;1.48;;;;;;;8.31;40.72;95760.34;4954030;29;20227;-62
2022/12/21 09:42:26;;;;;;;0.73;0.73;;;;;;;8.20;41.06;95760.03;4954249;29;20258;-62
2022/12/21 09:45:44;;;;;;;1.45;1.35;;;;;;;8.23;41.29;95753.56;4953401;28;20467;-64
2022/12/21 09:48:14;;;;;;;2.30;2.00;;;;;;;8.43;40.17;95753.38;4910890;29;20200;-64
2022/12/21 09:51:24;;;;;;;1.10;1.10;;;;;;;8.23;40.57;95748.34;4953816;29;20204;-62
2022/12/21 09:54:00;;;;;;;1.00;0.80;;;;;;;8.81;40.09;95736.31;4927998;29;20457;-63
2022/12/21 09:56:29;;;;;;;0.83;0.83;;;;;;;9.03;39.63;95742.63;4953303;29;20451;-62
2022/12/21 09:59:01;;;;;;;1.40;1.30;;;;;;;9.10;39.90;95732.84;4953347;29;20490;-61
2022/12/21 10:01:27;;;;;;;0.50;0.50;;;;;;;9.75;38.33;95722.28;4953548;29;20510;-65
2022/12/21 10:04:10;;;;;;;5.23;2.70;;;;;;;9.44;38.26;95725.28;4953651;29;20204;-62
2022/12/21 10:07:24;;;;;;;1.80;1.70;;;;;;;9.66;37.90;95715.81;4952308;28;20458;-62
2022/12/21 10:10:06;;;;;;;2.40;2.20;;;;;;;9.29;39.20;95717.88;4902337;29;20982;-61
2022/12/21 10:13:30;;;;;;;0.93;0.93;;;;;;;9.36;38.21;95712.56;4952085;29;20612;-61
2022/12/21 10:16:03;;;;;;;2.78;1.70;;;;;;;9.41;38.20;95704.81;4862960;29;20435;-63
2022/12/21 10:18:40;;;;;;;0.90;0.90;;;;;;;8.81;38.60;95698.97;4952679;29;20651;-61
2022/12/21 10:21:42;;;;;;;3.00;2.53;;;;;;;8.81;39.12;95694.50;4953309;29;20499;-63
2022/12/21 10:24:26;;;;;;;1.02;1.02;;;;;;;8.80;38.70;95682.47;4940434;29;20996;-59
2022/12/21 10:27:02;;;;;;;1.07;1.03;;;;;;;8.55;39.18;95663.59;4952919;29;20200;-64
2022/12/21 10:29:38;;;;;;;0.45;0.45;;;;;;;8.78;38.34;95671.47;4954395;29;20451;-62
2022/12/21 10:32:11;;;;;;;1.23;1.13;;;;;;;8.43;38.58;95672.41;4953281;29;20323;-61
2022/12/21 10:34:46;;;;;;;3.70;2.57;;;;;;;8.50;39.56;95670.50;4953118;28;20207;-60
2022/12/21 10:37:17;;;;;;;0.60;0.60;;;;;;;8.59;39.01;95675.19;4952809;29;20575;-62
2022/12/21 10:39:45;;;;;;;2.17;1.63;;;;;;;8.22;40.32;95650.16;4952647;29;20446;-60
2022/12/21 10:42:18;;;;;;;0.37;0.37;;;;;;;8.42;40.19;95668.19;4952261;29;20495;-62
2022/12/21 10:44:46;;;;;;;4.05;2.75;;;;;;;8.51;40.18;95661.63;4952252;29;20487;-61
2022/12/21 10:47:19;;;;;;;0.30;0.30;;;;;;;8.66;39.28;95652.38;4952460;29;20756;-60
2022/12/21 10:50:01;;;;;;;2.15;1.45;;;;;;;8.45;39.01;95647.66;4952424;29;20200;-63
2022/12/21 10:52:32;;;;;;;1.50;1.40;;;;;;;8.01;39.11;95655.88;4952395;29;20207;-63
2022/12/21 10:54:59;;;;;;;0.10;0.10;;;;;;;8.16;39.43;95649.25;4940052;29;20456;-60
2022/12/21 10:57:29;;;;;;;0.25;0.25;;;;;;;8.42;39.49;95650.72;4952228;29;20514;-62
2022/12/21 11:00:22;;;;;;;1.27;0.80;;;;;;;8.47;39.29;95640.38;4952343;29;20746;-62
2022/12/21 11:02:51;;;;;;;0.13;0.13;;;;;;;8.38;39.99;95646.16;4935917;29;20666;-63
2022/12/21 11:05:34;;;;;;;2.80;1.65;;;;;;;8.33;39.67;95639.00;4952859;29;20233;-66
2022/12/21 11:08:13;;;;;;;2.27;1.67;;;;;;;8.53;39.52;95636.09;4940812;28;20302;-62
2022/12/21 11:10:46;;;;;;;2.20;2.10;;;;;;;8.60;40.04;95629.75;4952256;29;20455;-62
2022/12/21 11:13:23;;;;;;;2.90;0.80;;;;;;;8.60;39.84;95624.53;4952228;29;20200;-66
2022/12/21 11:15:59;;;;;;;1.10;0.97;;;;;;;8.82;39.77;95615.13;4952029;29;20492;-62
2022/12/21 11:18:40;;;;;;;0.20;0.20;;;;;;;8.64;38.92;95610.00;4951553;28;20839;-63
2022/12/21 11:21:30;;;;;;;0.32;0.32;;;;;;;8.75;39.27;95614.44;4951683;29;20210;-61
2022/12/21 11:24:03;;;;;;;0.98;0.98;;;;;;;8.66;39.76;95602.72;4951282;29;20192;-64
2022/12/21 11:26:38;;;;;;;1.17;1.17;;;;;;;9.02;39.57;95599.88;4951154;29;20639;-62
2022/12/21 11:29:34;;;;;;;0.93;0.93;;;;;;;9.11;38.93;95593.28;4951710;29;20573;-61
2022/12/21 11:32:05;;;;;;;0.50;0.50;;;;;;;8.99;39.37;95594.31;4951480;29;20200;-62
2022/12/21 11:34:51;;;;;;;0.47;0.47;;;;;;;8.96;39.18;95592.94;4951789;29;20455;-61
2022/12/21 11:37:31;;;;;;;0.80;0.80;;;;;;;9.15;39.13;95581.34;4951697;29;20546;-60
2022/12/21 11:40:14;;;;;;;1.58;1.48;;;;;;;8.89;39.17;95592.28;4950856;29;20600;-62
2022/12/21 11:42:59;;;;;;;1.27;1.02;;;;;;;8.93;39.16;95588.19;4951569;29;20243;-62
2022/12/21 11:45:57;;;;;;;0.20;0.20;;;;;;;9.15;38.87;95576.13;4951255;29;20232;-62
2022/12/21 11:49:07;;;;;;;0.20;0.20;;;;;;;9.37;38.77;95572.91;4940201;29;20446;-63
2022/12/21 11:52:06;;;;;;;0.10;0.10;;;;;;;9.79;37.79;95566.41;4949843;29;20450;-63
2022/12/21 11:54:51;;;;;;;3.90;2.63;;;;;;;10.89;36.15;95557.75;4933985;29;20435;-63
2022/12/21 11:57:57;;;;;;;0.47;0.47;;;;;;;12.05;33.92;95546.06;4951256;29;20843;-60
2022/12/21 12:00:25;;;;;;;0.57;0.57;;;;;;;12.77;33.35;95547.19;4932371;29;20491;-62
2022/12/21 12:03:36;;;;;;;0.97;0.97;;;;;;;12.54;33.26;95542.28;4950824;29;20483;-62
2022/12/21 12:06:47;;;;;;;1.10;1.00;;;;;;;13.42;32.10;95524.94;4951092;29;20486;-62
2022/12/21 12:09:24;;;;;;;1.07;1.00;;;;;;;14.59;32.05;95525.75;4950430;29;21037;-61
2022/12/21 12:11:59;;;;;;;0.23;0.23;;;;;;;15.56;29.44;95513.91;4950595;29;20443;-62
2022/12/21 12:14:41;;;;;;;1.27;0.60;;;;;;;16.13;28.78;95514.13;4951422;29;20458;-61
2022/12/21 12:17:27;;;;;;;0.50;0.50;;;;;;;16.53;27.29;95516.50;4950908;29;20451;-63
2022/12/21 12:20:06;;;;;;;1.20;0.93;;;;;;;16.76;28.49;95507.06;4950720;29;20455;-63
2022/12/21 12:23:11;;;;;;;1.53;1.33;;;;;;;16.82;29.77;95511.25;4951305;29;20550;-61